UAL39MX KMSP-KSFO
Flight info
| Callsign | UAL39MX |
|---|---|
| Flight time | N/A |
| Altitude | 40000 |
| Route | SCHEP1 RXANN TEYOU LLUKY CYS J148 OAL INYOE DYAMD5 |
| Aircraft | B789/H-SDE1E2E3FGHIJ2J3J4J5M1RWXY/LB1D1 |
Departure
| Time | 2026-05-07 22:06 |
|---|---|
| Airport | Minneapolis–Saint Paul International Airport / Wold–Chamberlain Field (KMSP) |
Arrival
| Time | N/A |
|---|---|
| Airport | San Francisco International Airport (KSFO) |
| Time | Latitude | Longitude | Altitude | Speed | Heading |
|---|---|---|---|---|---|
| 2026-05-07 21:41 | 44.88316 | -93.21565 | 822 ft | 0 kts | 19° |
| 2026-05-07 21:58 | 44.88305 | -93.21570 | 822 ft | 2 kts | 14° |
| 2026-05-07 21:58 | 44.88291 | -93.21575 | 822 ft | 2 kts | 14° |
| 2026-05-07 21:58 | 44.88277 | -93.21581 | 822 ft | 2 kts | 15° |
| 2026-05-07 21:58 | 44.88262 | -93.21586 | 822 ft | 2 kts | 20° |
| 2026-05-07 21:59 | 44.88248 | -93.21594 | 822 ft | 2 kts | 23° |
| 2026-05-07 21:59 | 44.88234 | -93.21602 | 822 ft | 2 kts | 25° |
| 2026-05-07 21:59 | 44.88221 | -93.21611 | 822 ft | 2 kts | 28° |
| 2026-05-07 21:59 | 44.88208 | -93.21622 | 822 ft | 2 kts | 30° |
| 2026-05-07 22:00 | 44.88195 | -93.21632 | 822 ft | 2 kts | 33° |
| 2026-05-07 22:00 | 44.88187 | -93.21639 | 822 ft | 0 kts | 32° |
| 2026-05-07 22:02 | 44.88204 | -93.21621 | 822 ft | 4 kts | 53° |
| 2026-05-07 22:03 | 44.88191 | -93.21568 | 822 ft | 8 kts | 123° |
| 2026-05-07 22:03 | 44.88134 | -93.21489 | 822 ft | 14 kts | 148° |
| 2026-05-07 22:03 | 44.88038 | -93.21375 | 820 ft | 21 kts | 134° |
| 2026-05-07 22:03 | 44.87938 | -93.21175 | 819 ft | 27 kts | 121° |
| 2026-05-07 22:04 | 44.87826 | -93.20915 | 814 ft | 34 kts | 121° |
| 2026-05-07 22:04 | 44.87693 | -93.20609 | 810 ft | 36 kts | 121° |
| 2026-05-07 22:04 | 44.87564 | -93.20312 | 806 ft | 35 kts | 121° |
| 2026-05-07 22:04 | 44.87487 | -93.20126 | 805 ft | 13 kts | 124° |
| 2026-05-07 22:05 | 44.87409 | -93.20097 | 804 ft | 12 kts | 206° |
| 2026-05-07 22:05 | 44.87382 | -93.20180 | 803 ft | 9 kts | 296° |
| 2026-05-07 22:05 | 44.87387 | -93.20193 | 803 ft | 0 kts | 300° |
| 2026-05-07 22:05 | 44.87437 | -93.20313 | 805 ft | 40 kts | 301° |
| 2026-05-07 22:06 | 44.87714 | -93.20950 | 815 ft | 112 kts | 301° |
| 2026-05-07 22:06 | 44.88222 | -93.22134 | 1100 ft | 155 kts | 302° |
| 2026-05-07 22:06 | 44.88777 | -93.23451 | 1735 ft | 171 kts | 301° |
| 2026-05-07 22:06 | 44.89291 | -93.24925 | 2704 ft | 169 kts | 293° |
| 2026-05-07 22:07 | 44.89468 | -93.26603 | 3267 ft | 191 kts | 262° |
| 2026-05-07 22:07 | 44.88695 | -93.28252 | 3736 ft | 223 kts | 218° |
| 2026-05-07 22:07 | 44.87414 | -93.29482 | 4737 ft | 227 kts | 220° |
| 2026-05-07 22:07 | 44.86180 | -93.30814 | 5822 ft | 228 kts | 220° |
| 2026-05-07 22:08 | 44.84917 | -93.32154 | 6884 ft | 229 kts | 220° |
| 2026-05-07 22:08 | 44.83588 | -93.33577 | 7351 ft | 258 kts | 220° |
| 2026-05-07 22:08 | 44.82112 | -93.35152 | 7949 ft | 278 kts | 220° |
| 2026-05-07 22:08 | 44.80574 | -93.36815 | 9034 ft | 279 kts | 221° |
| 2026-05-07 22:09 | 44.79314 | -93.38792 | 9996 ft | 278 kts | 240° |
| 2026-05-07 22:09 | 44.78261 | -93.41057 | 10973 ft | 281 kts | 238° |
| 2026-05-07 22:09 | 44.77140 | -93.43288 | 11947 ft | 284 kts | 238° |
| 2026-05-07 22:09 | 44.75998 | -93.45550 | 12883 ft | 288 kts | 238° |
| 2026-05-07 22:10 | 44.74853 | -93.47839 | 13792 ft | 291 kts | 239° |
| 2026-05-07 22:10 | 44.73687 | -93.50179 | 14700 ft | 294 kts | 239° |
| 2026-05-07 22:10 | 44.72533 | -93.52530 | 15581 ft | 297 kts | 240° |
| 2026-05-07 22:10 | 44.71364 | -93.54923 | 16451 ft | 299 kts | 241° |
| 2026-05-07 22:11 | 44.70203 | -93.57305 | 17146 ft | 291 kts | 242° |
| 2026-05-07 22:11 | 44.69057 | -93.59656 | 17299 ft | 299 kts | 242° |
| 2026-05-07 22:11 | 44.67862 | -93.62143 | 17734 ft | 314 kts | 243° |
| 2026-05-07 22:11 | 44.66604 | -93.64803 | 17964 ft | 338 kts | 243° |
| 2026-05-07 22:12 | 44.65295 | -93.67608 | 18569 ft | 348 kts | 243° |
| 2026-05-07 22:12 | 44.63974 | -93.70457 | 19379 ft | 351 kts | 243° |
| 2026-05-07 22:12 | 44.62637 | -93.73350 | 20073 ft | 356 kts | 243° |
| 2026-05-07 22:12 | 44.61247 | -93.76291 | 20511 ft | 371 kts | 239° |
| 2026-05-07 22:13 | 44.59398 | -93.78887 | 21060 ft | 386 kts | 227° |